14:46
Airports
History
Links
Donate
Help keep this website running!
PayPal
Bitcoin
This page is community maintained. The information is intended for PC simulator navigation or reference.
Always use approved charts for navigation.
RJA2
Ohotone
Ohotone (RJA2)
Sakae-machi, Chiba Prefecture, Japan (270)
(C)
Lat/Lng:35° 51' 20.01" N / 140° 14' 40.01" E
35.855557 / 140.244446
Elevation:65'ft / 20mMSL
ID / ICAO:RJA2
Runways:1
Longest:(07-25) 595.5m / 1,954ft Asphalt
Controlled:Yes
Distance To
Airport ID:
Nearby VORs <50NM
Nearby NDBs
Nearby WeatherUpdated 08-19-17 14:30 GMT
Nearby weather at RJAA, NARITA INTL located 9.5 nautical miles from RJA2
Altimeter: 29.88
Visibility: 3.1 statute miles
Wind: 8 knots (010°)
Temp: 23°c 73°f
Humidity: 94.1%

METAR: RJAA 191430Z 01008KT 5000 -SHRA BR FEW002 BKN003 BKN004 23/22 Q1012 TEMPO 4000 BR RMK 2ST002 5ST003 7ST004 A2990

(Powered by phpweather)
Runway 07 / 25
Dimensions:595.5 x 20.1m 1954' x 66'ft
Surface:Asphalt
Runway 07 [A]Runway 25 [B]
Heading:066°TH 246°TH
Lat:
Lng:
35° 51' 16.21"N
140° 14' 28.97"E
35° 51' 23.8"N
140° 14' 51.04"E
User Notes and Comments
Google Map
Nearby Airports
(C) Ryugasaki 3.3 NM
RJA3 N
(C) NARITA INTL 9.5 NM
RJAA (WX) SE 126°
(C) Ami 11.5 NM
RJA1 N
(C) Kasumigaura AB 12.4 NM
RJAK (WX) NNW 347°
(C) SHIMOFUSA 13.6 NM
RJTL (WX) WSW 253°
(C) HYAKURI 24.4 NM
RJAH (WX) NNE 23°
(C) Tokyo Haneda Intl 33.2 NM
RJTT (WX) SW 229°
VFR Chart
Flight Planning at SkyVector.com